createdAt,value
2022-12-20T00:02:22.225Z,16.38
2022-12-20T00:04:52.965Z,16.67
2022-12-20T00:07:26.225Z,14.93
2022-12-20T00:09:56.798Z,15.27
2022-12-20T00:12:27.748Z,16.67
2022-12-20T00:14:58.365Z,14.65
2022-12-20T00:17:30.796Z,14.85
2022-12-20T00:20:01.420Z,12.82
2022-12-20T00:22:34.920Z,13.73
2022-12-20T00:25:05.411Z,12.32
2022-12-20T00:27:36.288Z,11.48
2022-12-20T00:30:07.725Z,12.02
2022-12-20T00:32:38.265Z,13.02
2022-12-20T00:35:10.493Z,12.60
2022-12-20T00:37:46.931Z,12.10
2022-12-20T00:40:18.073Z,13.23
2022-12-20T00:42:48.627Z,11.68
2022-12-20T00:45:19.414Z,12.07
2022-12-20T00:47:49.963Z,11.98
2022-12-20T00:50:20.660Z,12.20
2022-12-20T00:52:53.862Z,9.82
2022-12-20T00:55:24.687Z,9.73
2022-12-20T00:57:55.365Z,10.40
2022-12-20T01:00:26.193Z,10.32
2022-12-20T01:02:56.793Z,10.15
2022-12-20T01:05:27.480Z,11.13
2022-12-20T01:08:00.737Z,10.40
2022-12-20T01:10:31.453Z,10.38
2022-12-20T01:13:03.029Z,10.43
2022-12-20T01:15:33.722Z,11.30
2022-12-20T01:18:09.040Z,10.48
2022-12-20T01:20:39.632Z,10.57
2022-12-20T01:23:12.767Z,11.48
2022-12-20T01:25:43.400Z,11.07
2022-12-20T01:28:13.944Z,11.75
2022-12-20T01:30:45.624Z,10.18
2022-12-20T01:33:16.545Z,11.35
2022-12-20T01:35:58.491Z,11.02
2022-12-20T01:38:32.512Z,9.85
2022-12-20T01:41:03.331Z,10.88
2022-12-20T01:43:50.496Z,10.60
2022-12-20T01:46:22.388Z,9.02
2022-12-20T01:48:57.091Z,10.23
2022-12-20T01:51:29.023Z,9.27
2022-12-20T01:54:08.089Z,10.35
2022-12-20T01:56:42.316Z,9.82
2022-12-20T01:59:14.275Z,9.13
2022-12-20T02:01:46.424Z,10.57
2022-12-20T02:04:17.268Z,11.45
2022-12-20T02:06:47.973Z,13.07
2022-12-20T02:09:21.408Z,15.70
2022-12-20T02:12:08.237Z,11.68
2022-12-20T02:14:56.048Z,17.35
2022-12-20T02:20:41.575Z,18.17
2022-12-20T02:23:30.404Z,19.33
2022-12-20T02:26:21.914Z,19.55
2022-12-20T02:29:10.883Z,18.65
2022-12-20T02:31:51.356Z,16.88
2022-12-20T02:34:25.239Z,16.02
2022-12-20T02:36:57.041Z,15.30
2022-12-20T02:39:30.442Z,13.95
2022-12-20T02:42:04.723Z,12.10
2022-12-20T02:44:50.302Z,12.63
2022-12-20T02:47:28.512Z,12.50
2022-12-20T02:50:00.271Z,12.25
2022-12-20T02:52:33.068Z,12.13
2022-12-20T02:55:04.865Z,11.75
2022-12-20T02:57:46.128Z,9.82
2022-12-20T03:00:19.811Z,12.80
2022-12-20T03:03:06.254Z,10.68
2022-12-20T03:05:39.441Z,10.05
2022-12-20T03:08:11.776Z,9.85
2022-12-20T03:10:42.506Z,9.05
2022-12-20T03:13:13.533Z,9.07
2022-12-20T03:15:51.781Z,9.27
2022-12-20T03:18:25.642Z,10.75
2022-12-20T03:20:56.500Z,11.63
2022-12-20T03:23:27.580Z,11.55
2022-12-20T03:25:58.523Z,12.23
2022-12-20T03:28:35.806Z,12.38
2022-12-20T03:31:06.962Z,11.13
2022-12-20T03:33:48.861Z,12.60
2022-12-20T03:36:23.700Z,13.63
2022-12-20T03:38:59.367Z,12.88
2022-12-20T03:41:32.355Z,14.13
2022-12-20T03:44:03.513Z,12.90
2022-12-20T03:46:34.370Z,12.05
2022-12-20T03:49:09.422Z,12.80
2022-12-20T03:51:47.705Z,12.27
2022-12-20T03:54:18.396Z,11.07
2022-12-20T03:57:06.307Z,10.38
2022-12-20T03:59:37.463Z,10.45
2022-12-20T04:02:09.863Z,10.10
2022-12-20T04:04:43.057Z,10.80
2022-12-20T04:07:14.153Z,14.13
2022-12-20T04:09:48.560Z,12.80
2022-12-20T04:12:20.048Z,12.63
2022-12-20T04:14:50.657Z,10.30
2022-12-20T04:17:21.360Z,9.68
2022-12-20T04:19:55.088Z,9.95
2022-12-20T04:22:26.731Z,12.55
2022-12-20T04:25:07.025Z,13.05
2022-12-20T04:27:43.697Z,12.15
2022-12-20T04:30:15.804Z,10.20
2022-12-20T04:32:46.917Z,10.98
2022-12-20T04:35:21.423Z,10.95
2022-12-20T04:37:52.094Z,11.65
2022-12-20T04:40:22.682Z,12.07
2022-12-20T04:42:57.934Z,13.15
2022-12-20T04:45:28.560Z,13.40
2022-12-20T04:48:14.691Z,11.10
2022-12-20T04:50:55.562Z,12.40
2022-12-20T04:53:39.847Z,14.88
2022-12-20T04:56:11.313Z,15.43
2022-12-20T04:58:42.012Z,18.42
2022-12-20T05:01:14.128Z,19.20
2022-12-20T05:03:52.410Z,17.13
2022-12-20T05:06:26.203Z,18.85
2022-12-20T05:08:56.842Z,16.75
2022-12-20T05:11:28.389Z,14.90
2022-12-20T05:13:59.729Z,14.90
2022-12-20T05:16:30.604Z,16.40
2022-12-20T05:19:03.544Z,14.18
2022-12-20T05:21:54.278Z,16.13
2022-12-20T05:24:37.706Z,15.07
2022-12-20T05:27:19.323Z,11.85
2022-12-20T05:29:50.230Z,12.95
2022-12-20T05:32:21.044Z,11.88
2022-12-20T05:34:51.770Z,11.20
2022-12-20T05:37:26.689Z,12.75
2022-12-20T05:39:59.874Z,10.52
2022-12-20T05:42:30.561Z,13.23
2022-12-20T05:45:01.537Z,12.55
2022-12-20T05:47:35.194Z,15.05
2022-12-20T05:50:18.506Z,14.65
2022-12-20T05:53:12.242Z,15.38
2022-12-20T05:55:52.174Z,15.02
2022-12-20T05:58:23.928Z,16.88
2022-12-20T06:01:00.235Z,12.77
2022-12-20T06:03:31.401Z,12.20
2022-12-20T06:06:06.061Z,17.63
2022-12-20T06:08:41.969Z,13.20
2022-12-20T06:11:18.136Z,13.63
2022-12-20T06:13:58.237Z,13.27
2022-12-20T06:16:29.082Z,15.45
2022-12-20T06:19:01.049Z,14.93
2022-12-20T06:21:32.475Z,15.70
2022-12-20T06:24:07.357Z,16.00
2022-12-20T06:26:40.800Z,19.58
2022-12-20T06:29:14.520Z,18.17
2022-12-20T06:31:50.927Z,16.95
2022-12-20T06:34:21.952Z,18.60
2022-12-20T06:36:52.640Z,16.92
2022-12-20T06:39:30.492Z,18.33
2022-12-20T06:42:07.389Z,23.40
2022-12-20T06:44:39.495Z,22.08
2022-12-20T06:47:10.627Z,16.95
2022-12-20T06:49:42.777Z,17.33
2022-12-20T06:52:21.977Z,17.85
2022-12-20T06:54:57.628Z,17.88
2022-12-20T06:57:28.331Z,15.35
2022-12-20T06:59:59.886Z,16.27
2022-12-20T07:02:30.848Z,17.48
2022-12-20T07:05:01.579Z,17.55
2022-12-20T07:07:38.567Z,15.73
2022-12-20T07:10:16.393Z,15.98
2022-12-20T07:12:48.428Z,14.10
2022-12-20T07:15:19.476Z,16.42
2022-12-20T07:17:50.079Z,14.95
2022-12-20T07:20:21.308Z,16.88
2022-12-20T07:22:52.202Z,17.65
2022-12-20T07:25:25.815Z,16.40
2022-12-20T07:27:56.953Z,21.05
2022-12-20T07:30:27.537Z,17.25
2022-12-20T07:32:58.843Z,20.63
2022-12-20T07:35:29.777Z,16.13
2022-12-20T07:38:00.963Z,14.18
2022-12-20T07:40:34.112Z,15.52
2022-12-20T07:43:04.776Z,16.67
2022-12-20T07:45:35.367Z,16.95
2022-12-20T07:48:11.306Z,17.85
2022-12-20T07:50:45.186Z,16.92
2022-12-20T07:53:15.755Z,19.27
2022-12-20T07:55:49.263Z,15.55
2022-12-20T07:58:22.000Z,16.40
2022-12-20T08:00:53.456Z,14.57
2022-12-20T08:03:27.027Z,13.82
2022-12-20T08:06:04.078Z,15.13
2022-12-20T08:08:37.511Z,15.88
2022-12-20T08:11:12.918Z,20.25
2022-12-20T08:13:46.588Z,23.52
2022-12-20T08:16:17.691Z,22.90
2022-12-20T08:18:48.351Z,22.02
2022-12-20T08:21:19.378Z,24.05
2022-12-20T08:23:50.036Z,24.88
2022-12-20T08:26:23.202Z,25.13
2022-12-20T08:28:53.824Z,26.38
2022-12-20T08:31:24.518Z,26.10
2022-12-20T08:33:58.100Z,24.83
2022-12-20T08:36:28.691Z,24.00
2022-12-20T08:38:59.316Z,39.35
2022-12-20T08:41:32.520Z,21.30
2022-12-20T08:44:03.236Z,20.98
2022-12-20T08:46:33.918Z,21.15
2022-12-20T08:49:04.666Z,22.23
2022-12-20T08:51:35.254Z,22.25
2022-12-20T08:54:06.020Z,24.15
2022-12-20T08:56:39.204Z,21.25
2022-12-20T08:59:09.880Z,21.02
2022-12-20T09:01:40.601Z,21.77
2022-12-20T09:04:14.967Z,21.25
2022-12-20T09:06:45.524Z,23.58
2022-12-20T09:09:16.683Z,21.80
2022-12-20T09:11:49.830Z,20.90
2022-12-20T09:14:22.344Z,21.85
2022-12-20T09:16:53.021Z,20.05
2022-12-20T09:19:23.618Z,21.48
2022-12-20T09:21:55.629Z,22.52
2022-12-20T09:24:26.251Z,21.20
2022-12-20T09:27:00.082Z,18.33
2022-12-20T09:29:35.530Z,19.15
2022-12-20T09:34:36.817Z,17.58
2022-12-20T09:37:07.363Z,16.13
2022-12-20T09:39:38.138Z,16.27
2022-12-20T09:42:13.441Z,16.67
2022-12-20T09:44:45.765Z,17.63
2022-12-20T09:47:21.078Z,15.32
2022-12-20T09:49:57.529Z,16.52
2022-12-20T09:52:50.720Z,15.85
2022-12-20T09:55:31.658Z,15.77
2022-12-20T09:58:22.294Z,16.35
2022-12-20T10:00:54.796Z,17.65
2022-12-20T10:03:29.240Z,16.63
2022-12-20T10:06:03.899Z,16.35
2022-12-20T10:08:47.237Z,16.08
2022-12-20T10:11:40.711Z,16.40
2022-12-20T10:16:57.118Z,15.95
2022-12-20T10:19:45.532Z,16.58
2022-12-20T10:22:22.685Z,15.80
2022-12-20T10:25:02.070Z,15.35
2022-12-20T10:27:38.090Z,15.27
2022-12-20T10:30:16.216Z,14.77
2022-12-20T10:32:49.105Z,17.35
2022-12-20T10:35:29.252Z,15.15
2022-12-20T10:38:10.252Z,14.98
2022-12-20T10:43:45.828Z,16.85
2022-12-20T10:46:19.895Z,14.73
2022-12-20T10:48:52.047Z,17.63
2022-12-20T10:51:24.840Z,15.05
2022-12-20T10:54:01.453Z,14.27
2022-12-20T10:56:34.284Z,16.48
2022-12-20T10:59:08.627Z,17.77
2022-12-20T11:01:47.319Z,15.60
2022-12-20T11:04:30.199Z,16.00
2022-12-20T11:07:02.364Z,16.17
2022-12-20T11:09:35.344Z,14.82
2022-12-20T11:12:09.217Z,15.32
2022-12-20T11:14:42.057Z,16.58
2022-12-20T11:17:30.085Z,15.00
2022-12-20T11:20:33.605Z,16.52
2022-12-20T11:23:18.512Z,15.40
2022-12-20T11:26:04.291Z,15.35
2022-12-20T11:28:48.792Z,15.10
2022-12-20T11:31:28.700Z,16.80
2022-12-20T11:34:21.786Z,16.60
2022-12-20T11:37:13.726Z,15.85
2022-12-20T11:39:51.798Z,15.63
2022-12-20T11:42:35.186Z,14.95
2022-12-20T11:45:13.875Z,15.07
2022-12-20T11:48:05.627Z,13.90
2022-12-20T11:50:52.661Z,13.60
2022-12-20T11:53:29.796Z,15.65
2022-12-20T11:56:05.513Z,12.48
2022-12-20T11:58:49.317Z,13.65
2022-12-20T12:01:22.674Z,13.27
2022-12-20T12:04:04.754Z,13.07
2022-12-20T12:06:40.811Z,13.75
2022-12-20T12:09:25.969Z,12.60
2022-12-20T12:12:08.486Z,13.95
2022-12-20T12:14:52.148Z,15.23
2022-12-20T12:17:31.054Z,13.60
2022-12-20T12:20:21.200Z,13.43
2022-12-20T12:23:01.143Z,14.77
2022-12-20T12:25:31.790Z,16.20
2022-12-20T12:28:02.484Z,14.07
2022-12-20T12:30:42.615Z,15.65
2022-12-20T12:33:24.347Z,14.40
2022-12-20T12:36:12.907Z,15.93
2022-12-20T12:39:19.107Z,15.73
2022-12-20T12:42:23.342Z,13.85
2022-12-20T12:44:57.951Z,16.00
2022-12-20T12:47:42.299Z,16.17
2022-12-20T12:50:24.734Z,15.50
2022-12-20T12:52:57.523Z,16.30
2022-12-20T12:55:46.264Z,14.75
2022-12-20T12:58:34.626Z,14.63
2022-12-20T13:01:09.214Z,13.90
2022-12-20T13:03:46.343Z,12.83
2022-12-20T13:06:47.586Z,16.60
2022-12-20T13:09:39.011Z,15.65
2022-12-20T13:12:51.776Z,16.90
2022-12-20T13:15:54.531Z,17.15
2022-12-20T13:18:37.214Z,16.63
2022-12-20T13:21:35.814Z,15.00
2022-12-20T13:24:42.851Z,14.93
2022-12-20T13:27:41.769Z,13.95
2022-12-20T13:30:28.986Z,13.98
2022-12-20T13:33:16.156Z,14.13
2022-12-20T13:36:05.435Z,13.43
2022-12-20T13:39:07.596Z,14.95
2022-12-20T13:41:44.605Z,17.70
2022-12-20T13:44:43.226Z,15.85
2022-12-20T13:47:33.078Z,15.15
2022-12-20T13:50:06.011Z,15.15
2022-12-20T13:52:46.312Z,16.50
2022-12-20T13:55:26.261Z,15.38
2022-12-20T13:57:57.623Z,15.63
2022-12-20T14:00:29.920Z,15.88
2022-12-20T14:03:01.010Z,15.15
2022-12-20T14:05:36.581Z,15.88
2022-12-20T14:08:12.611Z,17.50
2022-12-20T14:10:43.136Z,17.58
2022-12-20T14:13:25.335Z,17.17
2022-12-20T14:15:56.788Z,13.52
2022-12-20T14:18:29.138Z,12.43
2022-12-20T14:21:02.819Z,13.88
2022-12-20T14:23:41.224Z,19.25
2022-12-20T14:26:16.671Z,24.88
2022-12-20T14:31:31.349Z,15.40
2022-12-20T14:34:07.588Z,13.88
2022-12-20T14:36:38.343Z,12.60
2022-12-20T14:39:28.893Z,12.10
2022-12-20T14:42:00.825Z,13.27
2022-12-20T14:44:33.898Z,13.80
2022-12-20T14:47:08.587Z,16.05
2022-12-20T14:49:41.530Z,14.25
2022-12-20T14:52:18.457Z,14.02
2022-12-20T14:55:10.035Z,13.95
2022-12-20T14:57:49.807Z,13.60
2022-12-20T15:00:27.838Z,17.63
2022-12-20T15:03:05.002Z,19.38
2022-12-20T15:05:45.779Z,16.92
2022-12-20T15:08:18.571Z,19.60
2022-12-20T15:11:04.091Z,19.63
2022-12-20T15:13:36.455Z,16.83
2022-12-20T15:16:09.294Z,20.13
2022-12-20T15:18:41.023Z,19.17
2022-12-20T15:21:16.998Z,18.65
2022-12-20T15:23:51.767Z,20.17
2022-12-20T15:26:26.546Z,15.18
2022-12-20T15:28:57.809Z,21.35
2022-12-20T15:31:33.817Z,24.58
2022-12-20T15:34:07.121Z,20.52
2022-12-20T15:36:38.645Z,20.80
2022-12-20T15:39:13.690Z,18.85
2022-12-20T15:41:50.480Z,19.70
2022-12-20T15:44:23.786Z,19.73
2022-12-20T15:46:55.074Z,21.58
2022-12-20T15:49:27.387Z,24.60
2022-12-20T15:51:58.556Z,23.23
2022-12-20T15:54:31.862Z,34.33
2022-12-20T15:57:07.880Z,98.90
2022-12-20T16:02:31.744Z,32.45
2022-12-20T16:05:02.364Z,34.25
2022-12-20T16:07:33.779Z,32.30
2022-12-20T16:10:04.413Z,35.85
2022-12-20T16:12:39.613Z,28.15
2022-12-20T16:15:22.462Z,26.73
2022-12-20T16:17:53.177Z,31.88
2022-12-20T16:20:23.776Z,29.63
2022-12-20T16:22:54.403Z,30.80
2022-12-20T16:25:30.354Z,32.22
2022-12-20T16:28:03.927Z,33.80
2022-12-20T16:30:35.112Z,37.03
2022-12-20T16:33:06.818Z,34.17
2022-12-20T16:35:39.390Z,24.45
2022-12-20T16:38:10.021Z,37.85
2022-12-20T16:40:40.621Z,46.08
2022-12-20T16:43:18.555Z,55.00
2022-12-20T16:45:49.330Z,56.22
2022-12-20T16:48:20.275Z,50.70
2022-12-20T16:50:51.071Z,48.30
2022-12-20T16:53:21.826Z,46.15
2022-12-20T16:55:52.488Z,42.63
2022-12-20T16:58:45.011Z,37.60
2022-12-20T17:01:19.437Z,40.17
2022-12-20T17:03:50.549Z,39.80
2022-12-20T17:06:22.020Z,39.15
2022-12-20T17:08:52.930Z,36.42
2022-12-20T17:11:25.607Z,35.97
2022-12-20T17:13:59.965Z,45.38
2022-12-20T17:16:31.070Z,41.90
2022-12-20T17:19:01.919Z,41.50
2022-12-20T17:24:25.285Z,40.65
2022-12-20T17:26:56.218Z,42.70
2022-12-20T17:29:29.617Z,35.58
2022-12-20T17:32:00.700Z,33.83
2022-12-20T17:34:33.433Z,34.28
2022-12-20T17:37:04.027Z,39.38
2022-12-20T17:39:34.898Z,39.40
2022-12-20T17:42:05.430Z,35.10
2022-12-20T17:44:38.784Z,39.60
2022-12-20T17:47:09.551Z,41.80
2022-12-20T17:49:40.375Z,38.40
2022-12-20T17:52:16.318Z,37.22
2022-12-20T17:54:46.812Z,35.67
2022-12-20T17:57:18.366Z,38.05
2022-12-20T17:59:51.552Z,38.08
2022-12-20T18:02:27.669Z,51.33
2022-12-20T18:04:58.542Z,47.28
2022-12-20T18:07:29.155Z,44.00
2022-12-20T18:09:59.690Z,45.78
2022-12-20T18:12:35.638Z,49.50
2022-12-20T18:15:12.034Z,53.05
2022-12-20T18:17:43.508Z,47.30
2022-12-20T18:20:15.417Z,44.63
2022-12-20T18:22:45.951Z,51.55
2022-12-20T18:25:18.446Z,49.33
2022-12-20T18:27:49.104Z,46.88
2022-12-20T18:30:22.580Z,47.60
2022-12-20T18:32:53.243Z,49.72
2022-12-20T18:35:23.811Z,43.47
2022-12-20T18:37:54.343Z,51.63
2022-12-20T18:40:26.047Z,49.20
2022-12-20T18:42:59.695Z,44.75
2022-12-20T18:45:37.570Z,41.25
2022-12-20T18:48:08.258Z,46.25
2022-12-20T18:50:39.355Z,48.75
2022-12-20T18:53:10.164Z,43.13
2022-12-20T18:55:41.122Z,43.60
2022-12-20T18:58:11.797Z,44.30
2022-12-20T19:00:48.075Z,44.63
2022-12-20T19:03:19.464Z,45.33
2022-12-20T19:05:55.462Z,43.75
2022-12-20T19:08:26.872Z,41.38
2022-12-20T19:11:00.988Z,44.35
2022-12-20T19:13:31.728Z,44.35
2022-12-20T19:16:10.064Z,43.75
2022-12-20T19:18:41.153Z,45.53
2022-12-20T19:21:13.457Z,49.90
2022-12-20T19:23:46.054Z,53.45
2022-12-20T19:26:18.389Z,50.00
2022-12-20T19:28:49.919Z,35.88
2022-12-20T19:31:25.067Z,40.42
2022-12-20T19:33:57.587Z,43.00
2022-12-20T19:36:30.488Z,42.97
2022-12-20T19:39:02.746Z,46.05
2022-12-20T19:41:35.755Z,41.85
2022-12-20T19:44:07.570Z,42.75
2022-12-20T19:46:41.035Z,42.80
2022-12-20T19:49:11.622Z,39.67
2022-12-20T19:51:42.352Z,42.33
2022-12-20T19:54:13.063Z,37.72
2022-12-20T19:56:43.675Z,35.92
2022-12-20T19:59:14.459Z,35.55
2022-12-20T20:01:47.768Z,38.88
2022-12-20T20:04:19.113Z,36.30
2022-12-20T20:06:49.706Z,42.03
2022-12-20T20:09:20.361Z,36.65
2022-12-20T20:11:51.013Z,38.92
2022-12-20T20:14:21.835Z,35.00
2022-12-20T20:16:55.223Z,35.53
2022-12-20T20:19:25.777Z,32.10
2022-12-20T20:21:56.396Z,31.92
2022-12-20T20:24:26.972Z,30.40
2022-12-20T20:26:57.495Z,32.42
2022-12-20T20:29:28.074Z,34.47
2022-12-20T20:32:01.285Z,34.33
2022-12-20T20:34:32.218Z,38.38
2022-12-20T20:37:03.031Z,41.28
2022-12-20T20:39:34.299Z,50.28
2022-12-20T20:42:04.800Z,53.38
2022-12-20T20:44:35.309Z,51.60
2022-12-20T20:47:10.474Z,52.20
2022-12-20T20:49:41.043Z,53.72
2022-12-20T20:52:11.969Z,53.97
2022-12-20T20:54:42.738Z,50.75
2022-12-20T20:57:13.559Z,49.75
2022-12-20T20:59:44.702Z,50.58
2022-12-20T21:02:21.188Z,51.80
2022-12-20T21:05:35.289Z,49.97
2022-12-20T21:07:42.346Z,50.55
2022-12-20T21:10:13.618Z,51.30
2022-12-20T21:12:44.318Z,53.25
2022-12-20T21:15:23.956Z,52.45
2022-12-20T21:17:57.661Z,50.40
2022-12-20T21:20:28.136Z,46.78
2022-12-20T21:22:58.740Z,46.13
2022-12-20T21:25:29.279Z,48.85
2022-12-20T21:28:00.185Z,47.22
2022-12-20T21:30:30.815Z,50.05
2022-12-20T21:33:04.033Z,51.05
2022-12-20T21:35:34.614Z,45.50
2022-12-20T21:38:05.316Z,47.25
2022-12-20T21:40:35.848Z,48.92
2022-12-20T21:43:06.821Z,46.75
2022-12-20T21:45:37.415Z,47.92
2022-12-20T21:48:10.774Z,49.10
2022-12-20T21:50:41.310Z,48.28
2022-12-20T21:53:17.570Z,45.17
2022-12-20T21:55:50.033Z,42.08
2022-12-20T21:58:20.710Z,44.45
2022-12-20T22:00:54.753Z,49.17
2022-12-20T22:03:29.466Z,43.17
2022-12-20T22:06:00.946Z,42.05
2022-12-20T22:08:32.367Z,42.20
2022-12-20T22:11:03.561Z,42.05
2022-12-20T22:13:41.037Z,42.33
2022-12-20T22:16:13.764Z,45.08
2022-12-20T22:18:48.127Z,45.40
2022-12-20T22:21:19.923Z,44.25
2022-12-20T22:23:51.241Z,43.15
2022-12-20T22:26:23.866Z,43.38
2022-12-20T22:28:56.847Z,47.60
2022-12-20T22:31:28.083Z,44.25
2022-12-20T22:34:02.170Z,42.35
2022-12-20T22:36:32.970Z,42.15
2022-12-20T22:39:03.665Z,43.65
2022-12-20T22:41:35.646Z,39.72
2022-12-20T22:44:06.528Z,39.75
2022-12-20T22:46:36.948Z,34.50
2022-12-20T22:49:10.288Z,41.47
2022-12-20T22:51:40.961Z,34.58
2022-12-20T22:54:11.582Z,37.05
2022-12-20T22:56:42.059Z,37.03
2022-12-20T22:59:12.621Z,39.58
2022-12-20T23:01:43.228Z,38.13
2022-12-20T23:04:17.233Z,37.00
2022-12-20T23:06:47.822Z,36.88
2022-12-20T23:09:18.396Z,35.15
2022-12-20T23:12:01.246Z,33.85
2022-12-20T23:14:44.240Z,33.03
2022-12-20T23:17:14.855Z,32.97
2022-12-20T23:20:00.491Z,33.03
2022-12-20T23:22:44.521Z,32.78
2022-12-20T23:25:17.192Z,31.85
2022-12-20T23:27:49.968Z,32.95
2022-12-20T23:30:22.202Z,32.67
2022-12-20T23:32:56.402Z,27.80
2022-12-20T23:35:29.700Z,35.80
2022-12-20T23:38:00.337Z,35.90
2022-12-20T23:40:30.945Z,37.10
2022-12-20T23:43:01.434Z,36.25
2022-12-20T23:45:32.281Z,39.63
2022-12-20T23:48:02.856Z,36.40
2022-12-20T23:50:36.567Z,38.92
2022-12-20T23:53:07.311Z,37.30
2022-12-20T23:55:38.172Z,33.90
2022-12-20T23:58:08.761Z,37.50
